createdAt,value
2022-08-25T00:00:10.423Z,64.90
2022-08-25T00:02:37.808Z,64.40
2022-08-25T00:05:05.571Z,64.40
2022-08-25T00:07:33.622Z,65.10
2022-08-25T00:10:00.379Z,65.40
2022-08-25T00:12:27.428Z,64.80
2022-08-25T00:14:55.116Z,64.70
2022-08-25T00:17:21.884Z,64.90
2022-08-25T00:19:48.674Z,65.30
2022-08-25T00:22:15.431Z,66.10
2022-08-25T00:24:42.565Z,64.50
2022-08-25T00:27:12.244Z,65.20
2022-08-25T00:29:40.582Z,65.60
2022-08-25T00:32:07.487Z,65.30
2022-08-25T00:34:37.907Z,65.00
2022-08-25T00:37:10.262Z,66.50
2022-08-25T00:39:42.533Z,65.60
2022-08-25T00:42:13.422Z,65.80
2022-08-25T00:44:44.000Z,65.30
2022-08-25T00:47:11.342Z,65.60
2022-08-25T00:49:59.491Z,65.90
2022-08-25T00:52:32.720Z,65.30
2022-08-25T00:55:11.418Z,65.10
2022-08-25T00:57:43.672Z,65.70
2022-08-25T01:00:19.448Z,65.90
2022-08-25T01:02:46.384Z,66.10
2022-08-25T01:05:13.481Z,65.80
2022-08-25T01:07:41.804Z,66.20
2022-08-25T01:10:13.487Z,65.90
2022-08-25T01:12:40.745Z,66.00
2022-08-25T01:15:10.128Z,65.60
2022-08-25T01:17:51.688Z,65.60
2022-08-25T01:20:20.702Z,66.00
2022-08-25T01:22:49.265Z,67.10
2022-08-25T01:26:06.434Z,65.90
2022-08-25T01:28:33.418Z,65.10
2022-08-25T01:31:00.609Z,65.80
2022-08-25T01:33:28.116Z,66.00
2022-08-25T01:35:55.478Z,65.40
2022-08-25T01:38:23.209Z,65.90
2022-08-25T01:40:50.362Z,65.80
2022-08-25T01:43:31.224Z,65.60
2022-08-25T01:45:58.772Z,65.70
2022-08-25T01:48:27.120Z,65.30
2022-08-25T01:50:53.970Z,65.10
2022-08-25T01:53:26.701Z,66.10
2022-08-25T01:56:01.692Z,66.20
2022-08-25T01:58:32.925Z,65.90
2022-08-25T02:01:02.443Z,65.90
2022-08-25T02:03:29.539Z,66.30
2022-08-25T02:05:57.554Z,66.40
2022-08-25T02:08:24.807Z,66.60
2022-08-25T02:10:53.874Z,66.30
2022-08-25T02:13:20.895Z,66.10
2022-08-25T02:15:56.553Z,66.10
2022-08-25T02:18:24.377Z,66.10
2022-08-25T02:20:51.192Z,65.40
2022-08-25T02:23:18.204Z,64.80
2022-08-25T02:25:44.969Z,65.20
2022-08-25T02:28:11.813Z,65.80
2022-08-25T02:30:42.522Z,65.00
2022-08-25T02:33:09.743Z,65.60
2022-08-25T02:35:37.380Z,65.30
2022-08-25T02:38:04.507Z,65.50
2022-08-25T02:40:31.669Z,65.90
2022-08-25T02:42:58.487Z,65.80
2022-08-25T02:45:25.374Z,66.00
2022-08-25T02:47:52.780Z,65.80
2022-08-25T02:50:19.737Z,66.10
2022-08-25T02:52:46.934Z,66.20
2022-08-25T02:55:14.355Z,65.50
2022-08-25T02:57:42.430Z,65.60
2022-08-25T03:00:12.828Z,65.20
2022-08-25T03:02:41.486Z,65.10
2022-08-25T03:05:10.651Z,65.40
2022-08-25T03:07:38.997Z,65.10
2022-08-25T03:10:14.147Z,65.10
2022-08-25T03:12:41.737Z,65.40
2022-08-25T03:15:12.780Z,65.30
2022-08-25T03:17:40.293Z,65.20
2022-08-25T03:20:08.068Z,65.20
2022-08-25T03:22:35.325Z,65.30
2022-08-25T03:25:24.200Z,65.30
2022-08-25T03:27:51.972Z,65.20
2022-08-25T03:30:19.336Z,64.80
2022-08-25T03:32:46.354Z,64.80
2022-08-25T03:35:13.498Z,65.00
2022-08-25T03:37:40.742Z,64.60
2022-08-25T03:40:15.175Z,64.60
2022-08-25T03:42:46.787Z,64.60
2022-08-25T03:45:16.554Z,64.50
2022-08-25T03:47:46.756Z,64.10
2022-08-25T03:50:14.617Z,64.70
2022-08-25T03:52:42.724Z,64.70
2022-08-25T03:55:12.190Z,64.60
2022-08-25T03:57:39.239Z,64.60
2022-08-25T04:00:08.229Z,64.60
2022-08-25T04:02:35.033Z,64.80
2022-08-25T04:05:02.149Z,65.00
2022-08-25T04:07:30.002Z,64.80
2022-08-25T04:09:56.792Z,64.70
2022-08-25T04:12:24.397Z,64.70
2022-08-25T04:14:51.531Z,64.70
2022-08-25T04:17:18.667Z,64.70
2022-08-25T04:19:45.408Z,64.70
2022-08-25T04:22:13.280Z,64.60
2022-08-25T04:24:40.494Z,64.50
2022-08-25T04:27:07.291Z,64.40
2022-08-25T04:29:34.243Z,64.40
2022-08-25T04:32:01.380Z,64.30
2022-08-25T04:34:30.636Z,64.10
2022-08-25T04:37:03.088Z,64.10
2022-08-25T04:39:30.680Z,63.90
2022-08-25T04:41:57.869Z,63.80
2022-08-25T04:44:25.387Z,63.70
2022-08-25T04:46:52.171Z,63.70
2022-08-25T04:49:19.299Z,63.60
2022-08-25T04:51:46.527Z,63.40
2022-08-25T04:54:17.918Z,63.40
2022-08-25T04:56:47.644Z,63.20
2022-08-25T04:59:16.953Z,63.10
2022-08-25T05:01:47.168Z,63.00
2022-08-25T05:04:27.587Z,63.00
2022-08-25T05:06:55.930Z,63.00
2022-08-25T05:09:23.894Z,62.80
2022-08-25T05:11:52.738Z,62.80
2022-08-25T05:14:26.257Z,62.70
2022-08-25T05:16:57.366Z,62.70
2022-08-25T05:19:24.710Z,62.60
2022-08-25T05:21:52.077Z,62.60
2022-08-25T05:24:19.821Z,62.60
2022-08-25T05:26:46.796Z,62.60
2022-08-25T05:29:14.455Z,62.50
2022-08-25T05:31:47.069Z,62.40
2022-08-25T05:34:18.939Z,62.50
2022-08-25T05:36:46.168Z,62.40
2022-08-25T05:39:13.373Z,62.20
2022-08-25T05:41:40.881Z,62.30
2022-08-25T05:44:07.727Z,62.20
2022-08-25T05:46:34.553Z,62.10
2022-08-25T05:49:01.967Z,62.10
2022-08-25T05:51:28.937Z,62.00
2022-08-25T05:53:55.707Z,61.90
2022-08-25T05:56:22.539Z,61.90
2022-08-25T05:58:50.216Z,61.90
2022-08-25T06:01:43.534Z,61.60
2022-08-25T06:04:13.505Z,61.70
2022-08-25T06:06:40.842Z,61.70
2022-08-25T06:09:09.386Z,61.40
2022-08-25T06:11:40.071Z,61.40
2022-08-25T06:14:10.789Z,61.30
2022-08-25T06:16:39.045Z,61.10
2022-08-25T06:19:07.332Z,61.20
2022-08-25T06:21:34.118Z,61.00
2022-08-25T06:24:02.207Z,61.00
2022-08-25T06:26:29.088Z,60.90
2022-08-25T06:28:55.895Z,60.90
2022-08-25T06:31:23.503Z,60.80
2022-08-25T06:33:50.987Z,60.80
2022-08-25T06:36:19.249Z,60.60
2022-08-25T06:38:47.065Z,60.40
2022-08-25T06:41:14.037Z,60.30
2022-08-25T06:43:48.147Z,60.00
2022-08-25T06:46:23.089Z,59.90
2022-08-25T06:49:03.060Z,59.80
2022-08-25T06:51:30.035Z,59.70
2022-08-25T06:53:56.866Z,59.50
2022-08-25T06:56:23.991Z,59.50
2022-08-25T06:58:50.922Z,59.30
2022-08-25T07:01:23.418Z,59.80
2022-08-25T07:03:57.462Z,59.00
2022-08-25T07:06:26.642Z,58.80
2022-08-25T07:08:53.905Z,58.70
2022-08-25T07:11:21.603Z,58.60
2022-08-25T07:13:50.123Z,58.60
2022-08-25T07:16:18.694Z,58.50
2022-08-25T07:18:46.305Z,58.30
2022-08-25T07:21:14.976Z,58.50
2022-08-25T07:23:42.957Z,59.00
2022-08-25T07:26:27.161Z,59.40
2022-08-25T07:28:59.753Z,57.90
2022-08-25T07:31:29.435Z,55.90
2022-08-25T07:34:15.039Z,54.50
2022-08-25T07:36:43.600Z,53.40
2022-08-25T07:39:11.497Z,52.30
2022-08-25T07:41:41.374Z,51.00
2022-08-25T07:44:10.399Z,50.00
2022-08-25T07:46:38.248Z,49.20
2022-08-25T07:49:16.610Z,48.10
2022-08-25T07:52:05.457Z,47.30
2022-08-25T07:54:34.495Z,46.60
2022-08-25T07:57:05.722Z,46.40
2022-08-25T07:59:38.996Z,45.60
2022-08-25T08:02:18.599Z,45.10
2022-08-25T08:04:48.763Z,45.30
2022-08-25T08:07:19.037Z,46.10
2022-08-25T08:09:46.958Z,45.10
2022-08-25T08:12:13.858Z,45.40
2022-08-25T08:14:42.180Z,45.50
2022-08-25T08:17:12.362Z,45.80
2022-08-25T08:19:44.840Z,45.10
2022-08-25T08:22:15.590Z,45.10
2022-08-25T08:24:54.424Z,45.50
2022-08-25T08:27:23.637Z,45.70
2022-08-25T08:29:50.425Z,46.40
2022-08-25T08:32:18.522Z,45.60
2022-08-25T08:34:47.065Z,45.60
2022-08-25T08:37:18.691Z,46.30
2022-08-25T08:39:49.081Z,46.40
2022-08-25T08:42:34.572Z,46.70
2022-08-25T08:45:05.229Z,47.00
2022-08-25T08:48:11.102Z,45.90
2022-08-25T08:51:09.754Z,45.70
2022-08-25T08:54:04.714Z,45.70
2022-08-25T08:56:48.958Z,44.50
2022-08-25T08:59:22.039Z,44.50
2022-08-25T09:02:01.180Z,44.50
2022-08-25T09:04:35.676Z,44.20
2022-08-25T09:07:09.346Z,43.60
2022-08-25T09:09:40.151Z,43.00
2022-08-25T09:12:27.675Z,42.00
2022-08-25T09:15:23.402Z,41.10
2022-08-25T09:17:54.386Z,41.00
2022-08-25T09:20:45.015Z,40.40
2022-08-25T09:23:45.790Z,41.80
2022-08-25T09:26:22.153Z,41.40
2022-08-25T09:28:55.436Z,41.00
2022-08-25T09:31:29.547Z,40.00
2022-08-25T09:34:02.191Z,40.00
2022-08-25T09:36:34.256Z,40.30
2022-08-25T09:39:04.918Z,39.60
2022-08-25T09:41:53.915Z,40.00
2022-08-25T09:44:43.736Z,40.20
2022-08-25T09:47:27.533Z,39.90
2022-08-25T09:50:00.872Z,39.30
2022-08-25T09:52:41.481Z,38.70
2022-08-25T09:55:08.630Z,37.80
2022-08-25T09:57:49.153Z,38.20
2022-08-25T10:00:30.898Z,38.10
2022-08-25T10:03:08.485Z,37.10
2022-08-25T10:05:41.619Z,36.70
2022-08-25T10:08:24.790Z,36.80
2022-08-25T10:10:59.889Z,37.10
2022-08-25T10:13:41.471Z,37.60
2022-08-25T10:16:36.081Z,38.00
2022-08-25T10:19:09.981Z,37.90
2022-08-25T10:21:39.406Z,36.00
2022-08-25T10:24:07.535Z,34.50
2022-08-25T10:27:08.966Z,34.40
2022-08-25T10:29:38.503Z,33.70
2022-08-25T10:32:13.958Z,31.80
2022-08-25T10:34:56.231Z,33.00
2022-08-25T10:37:44.698Z,33.80
2022-08-25T10:40:22.799Z,33.10
2022-08-25T10:43:07.879Z,32.80
2022-08-25T10:45:47.887Z,34.70
2022-08-25T10:48:41.254Z,34.20
2022-08-25T10:51:46.567Z,34.40
2022-08-25T10:54:42.823Z,33.40
2022-08-25T10:57:30.047Z,33.50
2022-08-25T11:00:03.537Z,32.90
2022-08-25T11:03:01.185Z,32.30
2022-08-25T11:05:36.783Z,32.70
2022-08-25T11:08:10.537Z,32.50
2022-08-25T11:10:44.601Z,33.10
2022-08-25T11:13:30.033Z,33.30
2022-08-25T11:16:17.633Z,32.60
2022-08-25T11:19:02.435Z,33.60
2022-08-25T11:21:54.145Z,34.00
2022-08-25T11:24:53.220Z,34.30
2022-08-25T11:27:29.951Z,33.50
2022-08-25T11:30:09.045Z,32.70
2022-08-25T11:32:37.898Z,32.90
2022-08-25T11:35:12.301Z,33.60
2022-08-25T11:38:13.889Z,33.10
2022-08-25T11:40:50.225Z,33.80
2022-08-25T11:43:55.570Z,33.60
2022-08-25T11:47:02.766Z,33.70
2022-08-25T11:49:51.691Z,33.10
2022-08-25T11:52:44.036Z,33.00
2022-08-25T11:55:29.575Z,33.10
2022-08-25T11:58:23.522Z,31.40
2022-08-25T12:00:53.037Z,31.80
2022-08-25T12:03:35.841Z,30.50
2022-08-25T12:06:27.006Z,30.80
2022-08-25T12:08:59.895Z,30.50
2022-08-25T12:11:46.296Z,30.00
2022-08-25T12:14:23.574Z,30.00
2022-08-25T12:16:56.952Z,29.30
2022-08-25T12:19:29.669Z,29.20
2022-08-25T12:22:27.631Z,28.80
2022-08-25T12:25:03.156Z,28.70
2022-08-25T12:28:03.034Z,28.40
2022-08-25T12:30:50.624Z,28.00
2022-08-25T12:33:33.070Z,28.00
2022-08-25T12:36:03.724Z,28.00
2022-08-25T12:38:53.692Z,28.10
2022-08-25T12:41:24.563Z,27.40
2022-08-25T12:43:54.557Z,28.40
2022-08-25T12:46:21.738Z,28.10
2022-08-25T12:49:14.967Z,28.20
2022-08-25T12:52:00.073Z,28.10
2022-08-25T12:55:01.105Z,28.40
2022-08-25T12:57:42.042Z,28.30
2022-08-25T13:00:23.611Z,27.20
2022-08-25T13:03:14.156Z,27.10
2022-08-25T13:06:05.835Z,27.60
2022-08-25T13:09:21.835Z,27.30
2022-08-25T13:12:14.452Z,28.30
2022-08-25T13:14:44.040Z,28.10
2022-08-25T13:17:12.054Z,27.70
2022-08-25T13:19:38.867Z,27.60
2022-08-25T13:22:17.811Z,27.30
2022-08-25T13:24:47.422Z,28.00
2022-08-25T13:27:26.504Z,28.20
2022-08-25T13:29:56.978Z,28.10
2022-08-25T13:32:35.668Z,27.30
2022-08-25T13:35:17.585Z,27.50
2022-08-25T13:37:47.496Z,27.90
2022-08-25T13:40:28.101Z,27.40
2022-08-25T13:43:11.533Z,27.20
2022-08-25T13:45:50.526Z,27.70
2022-08-25T13:48:33.943Z,27.20
2022-08-25T13:51:31.552Z,27.50
2022-08-25T13:54:08.727Z,27.50
2022-08-25T13:56:40.933Z,26.70
2022-08-25T13:59:24.674Z,26.00
2022-08-25T14:01:54.221Z,26.20
2022-08-25T14:04:32.779Z,26.20
2022-08-25T14:07:19.414Z,26.70
2022-08-25T14:09:54.021Z,27.00
2022-08-25T14:12:39.527Z,26.90
2022-08-25T14:15:11.799Z,27.20
2022-08-25T14:17:41.343Z,26.60
2022-08-25T14:20:27.276Z,25.90
2022-08-25T14:22:58.131Z,26.10
2022-08-25T14:25:30.337Z,25.90
2022-08-25T14:28:10.800Z,25.50
2022-08-25T14:30:46.206Z,25.50
2022-08-25T14:33:15.195Z,26.60
2022-08-25T14:35:45.516Z,26.30
2022-08-25T14:38:14.966Z,26.10
2022-08-25T14:40:42.927Z,25.90
2022-08-25T14:43:10.298Z,26.30
2022-08-25T14:45:42.932Z,26.00
2022-08-25T14:48:18.079Z,25.70
2022-08-25T14:50:46.093Z,25.40
2022-08-25T14:53:13.151Z,25.90
2022-08-25T14:55:40.020Z,26.30
2022-08-25T14:58:07.445Z,26.40
2022-08-25T15:00:42.027Z,26.00
2022-08-25T15:03:13.295Z,26.00
2022-08-25T15:05:40.651Z,25.60
2022-08-25T15:08:28.909Z,25.70
2022-08-25T15:10:59.383Z,25.60
2022-08-25T15:13:27.471Z,25.80
2022-08-25T15:15:55.387Z,25.80
2022-08-25T15:18:25.816Z,25.80
2022-08-25T15:20:52.592Z,25.90
2022-08-25T15:23:19.754Z,25.70
2022-08-25T15:25:49.131Z,26.00
2022-08-25T15:28:22.298Z,25.70
2022-08-25T15:30:50.378Z,25.60
2022-08-25T15:33:17.515Z,25.80
2022-08-25T15:35:45.104Z,25.80
2022-08-25T15:38:12.763Z,25.20
2022-08-25T15:40:39.725Z,26.00
2022-08-25T15:43:07.321Z,25.90
2022-08-25T15:45:36.402Z,26.30
2022-08-25T15:48:04.466Z,26.30
2022-08-25T15:50:34.170Z,26.20
2022-08-25T15:53:01.003Z,26.20
2022-08-25T15:55:27.940Z,26.40
2022-08-25T15:57:55.807Z,26.40
2022-08-25T16:00:23.051Z,26.20
2022-08-25T16:02:50.306Z,26.40
2022-08-25T16:05:17.364Z,26.70
2022-08-25T16:07:51.677Z,27.00
2022-08-25T16:10:18.976Z,27.00
2022-08-25T16:12:46.048Z,27.10
2022-08-25T16:15:13.197Z,27.50
2022-08-25T16:17:40.503Z,27.70
2022-08-25T16:20:08.244Z,27.80
2022-08-25T16:22:41.747Z,27.90
2022-08-25T16:25:09.077Z,28.00
2022-08-25T16:27:40.266Z,27.80
2022-08-25T16:30:11.773Z,27.90
2022-08-25T16:32:41.075Z,27.90
2022-08-25T16:35:11.046Z,28.00
2022-08-25T16:37:39.279Z,28.20
2022-08-25T16:40:08.787Z,28.40
2022-08-25T16:42:35.620Z,28.60
2022-08-25T16:45:02.607Z,28.60
2022-08-25T16:47:37.081Z,28.90
2022-08-25T16:50:08.897Z,29.10
2022-08-25T16:52:56.667Z,29.40
2022-08-25T16:55:25.965Z,29.40
2022-08-25T16:57:54.260Z,29.50
2022-08-25T17:00:24.875Z,29.50
2022-08-25T17:02:59.250Z,29.70
2022-08-25T17:05:28.183Z,29.80
2022-08-25T17:08:14.471Z,30.00
2022-08-25T17:10:44.644Z,30.00
2022-08-25T17:13:13.486Z,30.10
2022-08-25T17:15:42.998Z,30.40
2022-08-25T17:18:11.163Z,30.50
2022-08-25T17:20:38.747Z,30.80
2022-08-25T17:23:11.818Z,30.90
2022-08-25T17:25:41.335Z,31.10
2022-08-25T17:28:11.975Z,31.20
2022-08-25T17:30:39.537Z,31.40
2022-08-25T17:33:07.487Z,31.50
2022-08-25T17:35:40.126Z,31.80
2022-08-25T17:38:07.206Z,32.10
2022-08-25T17:40:35.863Z,32.20
2022-08-25T17:43:03.247Z,32.40
2022-08-25T17:45:30.463Z,32.50
2022-08-25T17:47:58.163Z,32.80
2022-08-25T17:50:28.647Z,33.10
2022-08-25T17:52:55.759Z,33.60
2022-08-25T17:55:23.379Z,34.80
2022-08-25T17:57:51.109Z,36.40
2022-08-25T18:00:20.449Z,38.00
2022-08-25T18:02:48.533Z,39.40
2022-08-25T18:05:16.811Z,40.30
2022-08-25T18:07:44.062Z,41.70
2022-08-25T18:10:12.225Z,42.30
2022-08-25T18:12:39.206Z,43.10
2022-08-25T18:15:07.143Z,43.60
2022-08-25T18:17:36.431Z,43.80
2022-08-25T18:20:09.838Z,44.10
2022-08-25T18:22:40.339Z,44.40
2022-08-25T18:25:13.781Z,44.60
2022-08-25T18:27:40.707Z,44.80
2022-08-25T18:30:08.450Z,44.70
2022-08-25T18:32:36.238Z,45.00
2022-08-25T18:35:04.088Z,45.50
2022-08-25T18:37:49.874Z,45.70
2022-08-25T18:40:22.787Z,46.00
2022-08-25T18:42:51.449Z,46.60
2022-08-25T18:45:19.588Z,47.20
2022-08-25T18:47:47.905Z,47.80
2022-08-25T18:50:15.316Z,48.40
2022-08-25T18:52:42.223Z,49.10
2022-08-25T18:55:09.980Z,49.80
2022-08-25T18:57:41.727Z,50.30
2022-08-25T19:00:11.921Z,50.70
2022-08-25T19:02:39.094Z,51.10
2022-08-25T19:05:12.186Z,51.30
2022-08-25T19:07:41.229Z,51.90
2022-08-25T19:10:08.854Z,52.20
2022-08-25T19:12:36.775Z,52.60
2022-08-25T19:15:05.226Z,52.70
2022-08-25T19:17:37.310Z,53.20
2022-08-25T19:20:11.193Z,53.40
2022-08-25T19:22:41.957Z,53.90
2022-08-25T19:25:10.551Z,54.10
2022-08-25T19:27:38.410Z,54.50
2022-08-25T19:30:09.113Z,54.70
2022-08-25T19:32:42.388Z,55.30
2022-08-25T19:35:32.097Z,55.40
2022-08-25T19:38:00.430Z,55.90
2022-08-25T19:40:29.072Z,56.10
2022-08-25T19:42:57.096Z,56.70
2022-08-25T19:45:25.375Z,56.90
2022-08-25T19:47:52.510Z,57.40
2022-08-25T19:50:20.742Z,57.70
2022-08-25T19:52:49.894Z,58.10
2022-08-25T19:55:17.339Z,58.50
2022-08-25T19:57:45.298Z,58.70
2022-08-25T20:00:17.861Z,59.00
2022-08-25T20:02:45.215Z,59.70
2022-08-25T20:05:13.568Z,59.60
2022-08-25T20:07:41.285Z,60.10
2022-08-25T20:10:14.140Z,60.10
2022-08-25T20:12:41.718Z,60.80
2022-08-25T20:15:11.308Z,61.00
2022-08-25T20:17:38.278Z,61.40
2022-08-25T20:20:12.312Z,61.60
2022-08-25T20:22:39.675Z,61.90
2022-08-25T20:25:18.898Z,62.10
2022-08-25T20:27:53.637Z,62.40
2022-08-25T20:30:29.631Z,62.60
2022-08-25T20:32:57.563Z,62.90
2022-08-25T20:35:26.818Z,63.20
2022-08-25T20:37:54.698Z,63.60
2022-08-25T20:40:25.516Z,63.30
2022-08-25T20:42:54.189Z,63.80
2022-08-25T20:45:24.600Z,64.00
2022-08-25T20:47:51.640Z,64.30
2022-08-25T20:50:18.851Z,64.40
2022-08-25T20:52:46.287Z,64.50
2022-08-25T20:55:17.563Z,64.60
2022-08-25T20:57:45.636Z,65.00
2022-08-25T21:00:13.013Z,65.30
2022-08-25T21:02:41.713Z,65.40
2022-08-25T21:05:08.949Z,65.40
2022-08-25T21:07:36.111Z,65.50
2022-08-25T21:10:06.784Z,65.70
2022-08-25T21:12:38.289Z,66.20
2022-08-25T21:15:05.590Z,65.90
2022-08-25T21:17:33.906Z,66.00
2022-08-25T21:20:00.804Z,66.40
2022-08-25T21:22:27.925Z,66.50
2022-08-25T21:24:55.413Z,66.70
2022-08-25T21:27:24.012Z,67.60
2022-08-25T21:29:54.932Z,66.80
2022-08-25T21:32:23.573Z,67.10
2022-08-25T21:34:57.096Z,67.20
2022-08-25T21:37:26.785Z,67.20
2022-08-25T21:39:54.131Z,67.10
2022-08-25T21:42:22.375Z,67.20
2022-08-25T21:44:50.618Z,67.30
2022-08-25T21:47:21.104Z,67.60
2022-08-25T21:49:48.867Z,67.40
2022-08-25T21:52:15.924Z,67.40
2022-08-25T21:54:44.055Z,67.40
2022-08-25T21:57:10.908Z,67.60
2022-08-25T21:59:41.818Z,68.00
2022-08-25T22:02:13.786Z,68.20
2022-08-25T22:04:42.787Z,68.40
2022-08-25T22:07:16.466Z,68.20
2022-08-25T22:09:44.651Z,68.60
2022-08-25T22:12:11.678Z,68.40
2022-08-25T22:14:39.754Z,68.70
2022-08-25T22:17:12.268Z,68.90
2022-08-25T22:19:45.670Z,68.70
2022-08-25T22:22:13.873Z,68.90
2022-08-25T22:24:40.707Z,69.10
2022-08-25T22:27:15.817Z,69.10
2022-08-25T22:29:44.067Z,69.10
2022-08-25T22:32:13.712Z,69.20
2022-08-25T22:34:40.823Z,69.20
2022-08-25T22:37:10.405Z,69.30
2022-08-25T22:39:37.385Z,69.30
2022-08-25T22:42:07.451Z,69.60
2022-08-25T22:44:34.387Z,69.60
2022-08-25T22:47:01.155Z,69.60
2022-08-25T22:49:29.255Z,69.60
2022-08-25T22:51:57.602Z,69.70
2022-08-25T22:54:25.389Z,69.90
2022-08-25T22:56:52.584Z,69.70
2022-08-25T22:59:20.167Z,69.80
2022-08-25T23:01:49.140Z,69.90
2022-08-25T23:04:16.018Z,69.70
2022-08-25T23:06:44.892Z,69.50
2022-08-25T23:09:14.136Z,69.60
2022-08-25T23:11:40.914Z,69.20
2022-08-25T23:14:11.074Z,69.50
2022-08-25T23:16:42.758Z,69.80
2022-08-25T23:19:13.757Z,69.90
2022-08-25T23:22:00.675Z,70.10
2022-08-25T23:24:31.275Z,70.10
2022-08-25T23:27:03.909Z,70.20
2022-08-25T23:29:33.180Z,70.30
2022-08-25T23:32:00.294Z,70.60
2022-08-25T23:34:28.499Z,70.50
2022-08-25T23:36:56.428Z,70.70
2022-08-25T23:39:23.708Z,71.60
2022-08-25T23:41:51.662Z,70.80
2022-08-25T23:44:20.893Z,71.00
2022-08-25T23:46:48.632Z,70.90
2022-08-25T23:49:18.498Z,71.10
2022-08-25T23:51:46.631Z,71.30
2022-08-25T23:54:14.746Z,71.20
2022-08-25T23:56:45.019Z,71.20
2022-08-25T23:59:24.254Z,71.30
